CheckWX is a tool to help pilots better visualize weather data.  It is not intended as a substitute for an official pre-flight weather briefing.

04:31:46 UTC

KIML METAR
Imperial Municipal Airport
Imperial, Nebraska, USA
Current

39 mins ago

KIML 240353Z AUTO 13010KT 10SM CLR 20/14 A3021 RMK AO2 SLP205 T02000144
Observed
Jul-24 @ 03:53 UTC
Wind
  • 130° at 10 KTS
Visibility
10 SM
Flight Rules
VFR
Cloud Levels
  • Clear skies
Temperature
20°C / 68°F
Dewpoint
14°C / 57°F
Humidity
69%
Altimeter
30.21" Hg
Pressure
1023.02 hPa
Previous

2 hours ago

KIML 240253Z AUTO 13009KT 10SM CLR 22/14 A3020 RMK AO2 SLP202 T02170144 52005
Observed
Jul-24 @ 02:53 UTC
Wind
  • 130° at 9 KTS
Visibility
10 SM
Flight Rules
VFR
Cloud Levels
  • Clear skies
Temperature
22°C / 72°F
Dewpoint
14°C / 57°F
Humidity
61%
Altimeter
30.2" Hg
Pressure
1022.72 hPa
Previous

3 hours ago

KIML 240153Z AUTO 13010KT 10SM CLR 23/14 A3020 RMK AO2 SLP202 T02330144
Observed
Jul-24 @ 01:53 UTC
Wind
  • 130° at 10 KTS
Visibility
10 SM
Flight Rules
VFR
Cloud Levels
  • Clear skies
Temperature
23°C / 73°F
Dewpoint
14°C / 57°F
Humidity
57%
Altimeter
30.2" Hg
Pressure
1022.72 hPa